createdAt,value
2019-02-19T00:01:30.101Z,100285.00
2019-02-19T00:03:58.600Z,100275.00
2019-02-19T00:06:26.934Z,100281.00
2019-02-19T00:08:55.108Z,100278.00
2019-02-19T00:11:23.345Z,100274.00
2019-02-19T00:13:51.605Z,100267.00
2019-02-19T00:16:19.828Z,100266.00
2019-02-19T00:18:48.151Z,100266.00
2019-02-19T00:21:16.382Z,100264.00
2019-02-19T00:23:44.676Z,100266.00
2019-02-19T00:26:17.261Z,100270.00
2019-02-19T00:28:45.601Z,100270.00
2019-02-19T00:31:13.838Z,100254.00
2019-02-19T00:33:42.016Z,100260.00
2019-02-19T00:36:10.367Z,100262.00
2019-02-19T00:38:38.613Z,100262.00
2019-02-19T00:41:06.861Z,100259.00
2019-02-19T00:43:35.068Z,100254.00
2019-02-19T00:46:03.278Z,100257.00
2019-02-19T00:48:31.638Z,100253.00
2019-02-19T00:50:59.842Z,100256.00
2019-02-19T00:53:28.119Z,100246.00
2019-02-19T00:55:56.327Z,100242.00
2019-02-19T00:58:24.679Z,100245.00
2019-02-19T01:00:53.166Z,100231.00
2019-02-19T01:03:21.336Z,100238.00
2019-02-19T01:05:50.508Z,100240.00
2019-02-19T01:08:18.740Z,100242.00
2019-02-19T01:10:46.929Z,100240.00
2019-02-19T01:13:15.127Z,100220.00
2019-02-19T01:15:43.418Z,100231.00
2019-02-19T01:18:11.601Z,100218.00
2019-02-19T01:20:39.840Z,100218.00
2019-02-19T01:23:08.260Z,100205.00
2019-02-19T01:25:36.476Z,100209.00
2019-02-19T01:28:04.715Z,100205.00
2019-02-19T01:30:32.956Z,100198.00
2019-02-19T01:33:02.471Z,100191.00
2019-02-19T01:35:30.770Z,100183.00
2019-02-19T01:37:59.049Z,100179.00
2019-02-19T01:40:27.248Z,100177.00
2019-02-19T01:42:55.434Z,100175.00
2019-02-19T01:45:23.628Z,100168.00
2019-02-19T01:47:52.129Z,100171.00
2019-02-19T01:50:20.755Z,100172.00
2019-02-19T01:52:49.451Z,100172.00
2019-02-19T01:55:17.836Z,100164.00
2019-02-19T01:57:46.370Z,100163.00
2019-02-19T02:00:15.003Z,100168.00
2019-02-19T02:02:43.348Z,100164.00
2019-02-19T02:05:11.714Z,100166.00
2019-02-19T02:07:40.394Z,100173.00
2019-02-19T02:10:08.743Z,100163.00
2019-02-19T02:12:37.149Z,100162.00
2019-02-19T02:15:05.900Z,100160.00
2019-02-19T02:17:34.619Z,100158.00
2019-02-19T02:20:02.903Z,100147.00
2019-02-19T02:22:31.182Z,100145.00
2019-02-19T02:24:59.366Z,100147.00
2019-02-19T02:27:27.620Z,100141.00
2019-02-19T02:29:56.065Z,100132.00
2019-02-19T02:32:24.859Z,100130.00
2019-02-19T02:34:53.183Z,100127.00
2019-02-19T02:37:21.508Z,100134.00
2019-02-19T02:39:50.188Z,100128.00
2019-02-19T02:42:18.469Z,100127.00
2019-02-19T02:44:46.710Z,100141.00
2019-02-19T02:47:15.342Z,100126.00
2019-02-19T02:49:43.757Z,100121.00
2019-02-19T02:52:11.971Z,100120.00
2019-02-19T02:54:40.530Z,100118.00
2019-02-19T02:57:09.262Z,100121.00
2019-02-19T02:59:37.679Z,100117.00
2019-02-19T03:02:05.906Z,100121.00
2019-02-19T03:04:34.172Z,100116.00
2019-02-19T03:07:31.168Z,100100.00
2019-02-19T03:09:59.447Z,100105.00
2019-02-19T03:12:27.657Z,100103.00
2019-02-19T03:14:55.887Z,100099.00
2019-02-19T03:17:24.147Z,100105.00
2019-02-19T03:19:52.340Z,100103.00
2019-02-19T03:22:20.895Z,100103.00
2019-02-19T03:24:49.216Z,100088.00
2019-02-19T03:27:17.657Z,100092.00
2019-02-19T03:29:45.840Z,100086.00
2019-02-19T03:32:14.007Z,100084.00
2019-02-19T03:34:42.257Z,100075.00
2019-02-19T03:37:10.560Z,100075.00
2019-02-19T03:39:39.585Z,100078.00
2019-02-19T03:42:09.877Z,100075.00
2019-02-19T03:44:38.122Z,100070.00
2019-02-19T03:47:06.286Z,100078.00
2019-02-19T03:49:34.571Z,100074.00
2019-02-19T03:52:02.872Z,100070.00
2019-02-19T03:54:31.071Z,100061.00
2019-02-19T03:56:59.364Z,100064.00
2019-02-19T03:59:27.598Z,100053.00
2019-02-19T04:01:55.773Z,100053.00
2019-02-19T04:04:24.096Z,100049.00
2019-02-19T04:06:52.759Z,100045.00
2019-02-19T04:09:21.026Z,100051.00
2019-02-19T04:11:49.395Z,100045.00
2019-02-19T04:14:17.621Z,100042.00
2019-02-19T04:16:45.856Z,100038.00
2019-02-19T04:19:14.030Z,100041.00
2019-02-19T04:21:42.655Z,100035.00
2019-02-19T04:24:10.893Z,100032.00
2019-02-19T04:26:39.243Z,100032.00
2019-02-19T04:29:07.523Z,100023.00
2019-02-19T04:31:35.699Z,100018.00
2019-02-19T04:34:03.975Z,100010.00
2019-02-19T04:36:32.260Z,100011.00
2019-02-19T04:39:02.180Z,100009.00
2019-02-19T04:41:30.581Z,100005.00
2019-02-19T04:43:58.885Z,100009.00
2019-02-19T04:46:31.590Z,99998.00
2019-02-19T04:48:57.589Z,99997.00
2019-02-19T04:51:25.923Z,99996.00
2019-02-19T04:53:54.186Z,99997.00
2019-02-19T04:56:24.055Z,99990.00
2019-02-19T04:58:52.908Z,99987.00
2019-02-19T05:01:21.179Z,99981.00
2019-02-19T05:03:49.396Z,99982.00
2019-02-19T05:06:17.609Z,99978.00
2019-02-19T05:08:45.850Z,99975.00
2019-02-19T05:11:14.069Z,99974.00
2019-02-19T05:13:42.267Z,99970.00
2019-02-19T05:16:10.435Z,99960.00
2019-02-19T05:18:38.641Z,99968.00
2019-02-19T05:21:07.294Z,99965.00
2019-02-19T05:23:35.814Z,99969.00
2019-02-19T05:26:04.537Z,99963.00
2019-02-19T05:28:33.211Z,99958.00
2019-02-19T05:31:01.354Z,99961.00
2019-02-19T05:33:29.522Z,99963.00
2019-02-19T05:35:57.735Z,99970.00
2019-02-19T05:38:25.952Z,99967.00
2019-02-19T05:40:54.414Z,99964.00
2019-02-19T05:43:22.599Z,99958.00
2019-02-19T05:45:51.215Z,99958.00
2019-02-19T05:48:20.034Z,99962.00
2019-02-19T05:50:48.933Z,99967.00
2019-02-19T05:53:17.751Z,99976.00
2019-02-19T05:55:45.944Z,99966.00
2019-02-19T05:58:14.595Z,99971.00
2019-02-19T06:00:43.153Z,99968.00
2019-02-19T06:03:17.173Z,99971.00
2019-02-19T06:05:45.412Z,99963.00
2019-02-19T06:08:13.673Z,99967.00
2019-02-19T06:10:41.950Z,99959.00
2019-02-19T06:13:10.182Z,99960.00
2019-02-19T06:15:38.535Z,99963.00
2019-02-19T06:18:06.966Z,99958.00
2019-02-19T06:20:35.632Z,99968.00
2019-02-19T06:23:04.216Z,99961.00
2019-02-19T06:25:32.619Z,99958.00
2019-02-19T06:28:01.362Z,99956.00
2019-02-19T06:30:29.541Z,99970.00
2019-02-19T06:32:57.929Z,99960.00
2019-02-19T06:35:26.197Z,99962.00
2019-02-19T06:37:54.527Z,99954.00
2019-02-19T06:40:28.114Z,99961.00
2019-02-19T06:42:56.590Z,99952.00
2019-02-19T06:45:25.028Z,99962.00
2019-02-19T06:47:53.678Z,99962.00
2019-02-19T06:50:22.392Z,99966.00
2019-02-19T06:52:50.735Z,99968.00
2019-02-19T06:55:18.874Z,99970.00
2019-02-19T06:57:47.116Z,99968.00
2019-02-19T07:00:15.851Z,99970.00
2019-02-19T07:03:12.827Z,99959.00
2019-02-19T07:05:41.391Z,99963.00
2019-02-19T07:08:09.737Z,99955.00
2019-02-19T07:10:37.881Z,99966.00
2019-02-19T07:13:06.288Z,99960.00
2019-02-19T07:15:35.008Z,99953.00
2019-02-19T07:18:03.284Z,99946.00
2019-02-19T07:20:31.482Z,99955.00
2019-02-19T07:22:59.717Z,99963.00
2019-02-19T07:25:27.911Z,99952.00
2019-02-19T07:27:56.302Z,99954.00
2019-02-19T07:30:24.466Z,99968.00
2019-02-19T07:32:52.690Z,99969.00
2019-02-19T07:35:20.914Z,99983.00
2019-02-19T07:37:49.143Z,99984.00
2019-02-19T07:40:17.578Z,99986.00
2019-02-19T07:42:46.271Z,99988.00
2019-02-19T07:45:14.486Z,99989.00
2019-02-19T07:47:42.763Z,99992.00
2019-02-19T07:50:10.967Z,100003.00
2019-02-19T07:52:39.223Z,99992.00
2019-02-19T07:55:07.875Z,99998.00
2019-02-19T07:57:36.057Z,99990.00
2019-02-19T08:00:04.703Z,99993.00
2019-02-19T08:02:32.966Z,99995.00
2019-02-19T08:05:01.639Z,99996.00
2019-02-19T08:07:29.874Z,100007.00
2019-02-19T08:09:58.117Z,100003.00
2019-02-19T08:12:26.394Z,100008.00
2019-02-19T08:14:54.566Z,100010.00
2019-02-19T08:17:22.709Z,100008.00
2019-02-19T08:19:50.969Z,100010.00
2019-02-19T08:22:19.273Z,100005.00
2019-02-19T08:24:47.463Z,100025.00
2019-02-19T08:27:15.716Z,100034.00
2019-02-19T08:29:44.299Z,100034.00
2019-02-19T08:32:13.506Z,100033.00
2019-02-19T08:34:42.091Z,100031.00
2019-02-19T08:37:10.350Z,100033.00
2019-02-19T08:39:38.697Z,100032.00
2019-02-19T08:42:06.916Z,100037.00
2019-02-19T08:44:35.729Z,100037.00
2019-02-19T08:47:03.986Z,100036.00
2019-02-19T08:49:32.274Z,100039.00
2019-02-19T08:52:02.077Z,100041.00
2019-02-19T08:54:30.288Z,100044.00
2019-02-19T08:56:58.523Z,100040.00
2019-02-19T08:59:26.812Z,100049.00
2019-02-19T09:01:55.096Z,100046.00
2019-02-19T09:04:23.312Z,100050.00
2019-02-19T09:06:51.718Z,100055.00
2019-02-19T09:09:19.998Z,100053.00
2019-02-19T09:11:48.161Z,100057.00
2019-02-19T09:14:16.564Z,100056.00
2019-02-19T09:16:44.990Z,100061.00
2019-02-19T09:19:13.345Z,100055.00
2019-02-19T09:21:41.551Z,100061.00
2019-02-19T09:24:09.927Z,100059.00
2019-02-19T09:26:38.080Z,100061.00
2019-02-19T09:29:06.383Z,100048.00
2019-02-19T09:31:34.587Z,100054.00
2019-02-19T09:34:04.303Z,100058.00
2019-02-19T09:36:32.639Z,100059.00
2019-02-19T09:39:01.142Z,100051.00
2019-02-19T09:41:29.831Z,100051.00
2019-02-19T09:43:58.225Z,100049.00
2019-02-19T09:46:26.488Z,100040.00
2019-02-19T09:48:54.725Z,100047.00
2019-02-19T09:51:23.115Z,100041.00
2019-02-19T09:53:51.533Z,100046.00
2019-02-19T09:56:20.249Z,100041.00
2019-02-19T09:58:48.679Z,100048.00
2019-02-19T10:01:16.969Z,100034.00
2019-02-19T10:03:45.283Z,100047.00
2019-02-19T10:06:13.656Z,100043.00
2019-02-19T10:08:41.966Z,100039.00
2019-02-19T10:11:10.405Z,100039.00
2019-02-19T10:13:41.705Z,100043.00
2019-02-19T10:16:09.955Z,100043.00
2019-02-19T10:18:38.833Z,100033.00
2019-02-19T10:21:07.602Z,100034.00
2019-02-19T10:23:36.352Z,100029.00
2019-02-19T10:26:04.700Z,100027.00
2019-02-19T10:28:32.979Z,100029.00
2019-02-19T10:31:01.349Z,100020.00
2019-02-19T10:33:29.899Z,100019.00
2019-02-19T10:35:58.188Z,100009.00
2019-02-19T10:38:26.544Z,100012.00
2019-02-19T10:40:57.775Z,100000.00
2019-02-19T10:43:26.165Z,100012.00
2019-02-19T10:45:54.399Z,100003.00
2019-02-19T10:48:23.458Z,100002.00
2019-02-19T10:50:51.801Z,100001.00
2019-02-19T10:53:20.383Z,100012.00
2019-02-19T10:55:48.693Z,100012.00
2019-02-19T10:58:23.042Z,100002.00
2019-02-19T11:00:47.471Z,99996.00
2019-02-19T11:03:15.911Z,99993.00
2019-02-19T11:05:44.229Z,99996.00
2019-02-19T11:08:12.559Z,99998.00
2019-02-19T11:10:40.828Z,99988.00
2019-02-19T11:13:09.540Z,99980.00
2019-02-19T11:15:37.997Z,99980.00
2019-02-19T11:18:06.333Z,99980.00
2019-02-19T11:20:37.163Z,99984.00
2019-02-19T11:23:05.718Z,99989.00
2019-02-19T11:25:34.065Z,99990.00
2019-02-19T11:28:02.397Z,99979.00
2019-02-19T11:30:30.822Z,99982.00
2019-02-19T11:32:59.244Z,99983.00
2019-02-19T11:35:27.631Z,99976.00
2019-02-19T11:37:56.094Z,99977.00
2019-02-19T11:40:24.689Z,99982.00
2019-02-19T11:42:53.531Z,99975.00
2019-02-19T11:45:22.366Z,99969.00
2019-02-19T11:47:50.708Z,99970.00
2019-02-19T11:50:19.436Z,99966.00
2019-02-19T11:52:47.707Z,99970.00
2019-02-19T11:55:16.394Z,99954.00
2019-02-19T11:57:44.667Z,99949.00
2019-02-19T12:00:16.546Z,99947.00
2019-02-19T12:02:44.804Z,99942.00
2019-02-19T12:05:13.196Z,99943.00
2019-02-19T12:07:41.552Z,99936.00
2019-02-19T12:10:11.949Z,99940.00
2019-02-19T12:12:40.026Z,99933.00
2019-02-19T12:15:08.596Z,99924.00
2019-02-19T12:17:36.966Z,99913.00
2019-02-19T12:20:05.394Z,99922.00
2019-02-19T12:22:33.857Z,99906.00
2019-02-19T12:25:02.459Z,99906.00
2019-02-19T12:27:31.009Z,99908.00
2019-02-19T12:29:59.315Z,99893.00
2019-02-19T12:32:27.694Z,99901.00
2019-02-19T12:34:56.017Z,99896.00
2019-02-19T12:37:24.280Z,99887.00
2019-02-19T12:39:52.729Z,99884.00
2019-02-19T12:42:24.113Z,99874.00
2019-02-19T12:44:52.520Z,99875.00
2019-02-19T12:47:20.769Z,99868.00
2019-02-19T12:49:49.131Z,99869.00
2019-02-19T12:52:17.353Z,99872.00
2019-02-19T12:54:48.076Z,99863.00
2019-02-19T12:57:16.478Z,99875.00
2019-02-19T12:59:45.004Z,99873.00
2019-02-19T13:02:13.288Z,99870.00
2019-02-19T13:04:41.676Z,99868.00
2019-02-19T13:07:10.096Z,99866.00
2019-02-19T13:09:38.486Z,99871.00
2019-02-19T13:12:06.981Z,99872.00
2019-02-19T13:14:35.886Z,99876.00
2019-02-19T13:17:04.279Z,99870.00
2019-02-19T13:19:32.607Z,99862.00
2019-02-19T13:22:03.420Z,99872.00
2019-02-19T13:24:32.493Z,99871.00
2019-02-19T13:27:01.411Z,99874.00
2019-02-19T13:29:29.962Z,99869.00
2019-02-19T13:31:58.390Z,99870.00
2019-02-19T13:34:27.117Z,99855.00
2019-02-19T13:36:55.408Z,99868.00
2019-02-19T13:39:23.772Z,99881.00
2019-02-19T13:41:52.044Z,99867.00
2019-02-19T13:44:20.418Z,99864.00
2019-02-19T13:46:48.711Z,99851.00
2019-02-19T13:49:16.984Z,99858.00
2019-02-19T13:51:45.301Z,99849.00
2019-02-19T13:54:51.193Z,99853.00
2019-02-19T13:57:19.517Z,99852.00
2019-02-19T13:59:47.796Z,99855.00
2019-02-19T14:02:16.253Z,99858.00
2019-02-19T14:04:44.646Z,99850.00
2019-02-19T14:07:12.904Z,99861.00
2019-02-19T14:09:41.313Z,99848.00
2019-02-19T14:12:09.825Z,99860.00
2019-02-19T14:14:45.874Z,99842.00
2019-02-19T14:17:16.679Z,99845.00
2019-02-19T14:19:52.329Z,99852.00
2019-02-19T14:22:38.968Z,99854.00
2019-02-19T14:25:26.028Z,99842.00
2019-02-19T14:28:23.146Z,99844.00
2019-02-19T14:31:09.879Z,99838.00
2019-02-19T14:34:03.717Z,99842.00
2019-02-19T14:36:42.895Z,99830.00
2019-02-19T14:39:42.709Z,99825.00
2019-02-19T14:42:48.504Z,99826.00
2019-02-19T14:45:36.419Z,99823.00
2019-02-19T14:48:33.267Z,99825.00
2019-02-19T14:51:22.503Z,99817.00
2019-02-19T14:54:21.676Z,99825.00
2019-02-19T14:57:12.815Z,99823.00
2019-02-19T14:59:59.183Z,99831.00
2019-02-19T15:02:47.500Z,99822.00
2019-02-19T15:05:50.678Z,99831.00
2019-02-19T15:08:41.368Z,99826.00
2019-02-19T15:11:29.115Z,99827.00
2019-02-19T15:14:17.122Z,99823.00
2019-02-19T15:17:10.812Z,99824.00
2019-02-19T15:20:00.959Z,99809.00
2019-02-19T15:22:57.592Z,99827.00
2019-02-19T15:25:56.600Z,99825.00
2019-02-19T15:28:43.230Z,99827.00
2019-02-19T15:31:29.634Z,99828.00
2019-02-19T15:34:15.971Z,99812.00
2019-02-19T15:37:22.032Z,99810.00
2019-02-19T15:40:08.123Z,99821.00
2019-02-19T15:43:10.935Z,99826.00
2019-02-19T15:46:08.523Z,99824.00
2019-02-19T15:48:58.249Z,99824.00
2019-02-19T15:51:54.869Z,99819.00
2019-02-19T15:54:51.962Z,99821.00
2019-02-19T15:57:42.389Z,99819.00
2019-02-19T16:00:33.133Z,99822.00
2019-02-19T16:03:09.802Z,99806.00
2019-02-19T16:06:03.600Z,99807.00
2019-02-19T16:08:41.091Z,99808.00
2019-02-19T16:11:28.447Z,99802.00
2019-02-19T16:14:22.567Z,99812.00
2019-02-19T16:17:25.761Z,99808.00
2019-02-19T16:20:13.712Z,99819.00
2019-02-19T16:23:00.407Z,99822.00
2019-02-19T16:25:40.213Z,99821.00
2019-02-19T16:28:34.100Z,99810.00
2019-02-19T16:31:30.772Z,99821.00
2019-02-19T16:34:28.069Z,99812.00
2019-02-19T16:37:18.661Z,99820.00
2019-02-19T16:40:09.030Z,99817.00
2019-02-19T16:42:57.735Z,99808.00
2019-02-19T16:45:35.383Z,99813.00
2019-02-19T16:48:22.417Z,99808.00
2019-02-19T16:50:59.794Z,99812.00
2019-02-19T16:53:46.037Z,99812.00
2019-02-19T16:56:42.365Z,99820.00
2019-02-19T16:59:33.177Z,99810.00
2019-02-19T17:02:32.684Z,99818.00
2019-02-19T17:05:23.586Z,99821.00
2019-02-19T17:08:28.873Z,99827.00
2019-02-19T17:11:25.949Z,99823.00
2019-02-19T17:14:12.203Z,99822.00
2019-02-19T17:17:15.190Z,99824.00
2019-02-19T17:19:56.452Z,99826.00
2019-02-19T17:22:35.611Z,99824.00
2019-02-19T17:25:16.619Z,99829.00
2019-02-19T17:27:51.603Z,99827.00
2019-02-19T17:30:38.523Z,99833.00
2019-02-19T17:33:34.425Z,99830.00
2019-02-19T17:36:25.458Z,99824.00
2019-02-19T17:39:16.626Z,99825.00
2019-02-19T17:42:04.677Z,99822.00
2019-02-19T17:44:51.429Z,99824.00
2019-02-19T17:47:42.583Z,99813.00
2019-02-19T17:50:37.951Z,99828.00
2019-02-19T17:53:18.927Z,99822.00
2019-02-19T17:56:04.077Z,99824.00
2019-02-19T17:58:57.851Z,99817.00
2019-02-19T18:01:48.730Z,99817.00
2019-02-19T18:04:39.147Z,99823.00
2019-02-19T18:07:35.200Z,99807.00
2019-02-19T18:10:23.375Z,99804.00
2019-02-19T18:13:10.728Z,99811.00
2019-02-19T18:15:54.698Z,99806.00
2019-02-19T18:18:41.211Z,99806.00
2019-02-19T18:21:09.812Z,99808.00
2019-02-19T18:23:38.769Z,99812.00
2019-02-19T18:26:07.677Z,99809.00
2019-02-19T18:28:36.213Z,99830.00
2019-02-19T18:31:04.719Z,99827.00
2019-02-19T18:33:33.084Z,99813.00
2019-02-19T18:36:01.674Z,99828.00
2019-02-19T18:38:31.666Z,99824.00
2019-02-19T18:41:00.830Z,99822.00
2019-02-19T18:43:29.182Z,99820.00
2019-02-19T18:45:57.659Z,99828.00
2019-02-19T18:48:26.092Z,99831.00
2019-02-19T18:50:58.467Z,99827.00
2019-02-19T18:53:24.903Z,99828.00
2019-02-19T18:55:53.551Z,99837.00
2019-02-19T18:58:21.883Z,99844.00
2019-02-19T19:00:50.285Z,99837.00
2019-02-19T19:03:18.492Z,99842.00
2019-02-19T19:05:47.175Z,99847.00
2019-02-19T19:08:15.527Z,99846.00
2019-02-19T19:10:46.921Z,99851.00
2019-02-19T19:13:15.522Z,99855.00
2019-02-19T19:15:45.541Z,99859.00
2019-02-19T19:18:14.222Z,99867.00
2019-02-19T19:20:42.809Z,99863.00
2019-02-19T19:23:11.734Z,99873.00
2019-02-19T19:25:40.418Z,99877.00
2019-02-19T19:28:08.826Z,99868.00
2019-02-19T19:30:36.981Z,99865.00
2019-02-19T19:33:06.084Z,99852.00
2019-02-19T19:35:34.380Z,99858.00
2019-02-19T19:38:02.575Z,99853.00
2019-02-19T19:40:30.884Z,99857.00
2019-02-19T19:42:59.161Z,99854.00
2019-02-19T19:45:27.438Z,99851.00
2019-02-19T19:47:55.660Z,99855.00
2019-02-19T19:50:23.977Z,99857.00
2019-02-19T19:52:52.241Z,99853.00
2019-02-19T19:55:20.447Z,99860.00
2019-02-19T19:57:48.694Z,99856.00
2019-02-19T20:00:17.127Z,99856.00
2019-02-19T20:02:45.384Z,99852.00
2019-02-19T20:05:13.634Z,99860.00
2019-02-19T20:07:41.831Z,99858.00
2019-02-19T20:10:10.138Z,99850.00
2019-02-19T20:12:38.415Z,99850.00
2019-02-19T20:15:07.594Z,99849.00
2019-02-19T20:17:35.849Z,99854.00
2019-02-19T20:20:05.127Z,99851.00
2019-02-19T20:22:33.373Z,99846.00
2019-02-19T20:25:02.434Z,99857.00
2019-02-19T20:27:30.658Z,99838.00
2019-02-19T20:29:58.872Z,99851.00
2019-02-19T20:32:27.073Z,99846.00
2019-02-19T20:34:55.299Z,99847.00
2019-02-19T20:37:23.502Z,99842.00
2019-02-19T20:39:51.691Z,99850.00
2019-02-19T20:42:19.918Z,99861.00
2019-02-19T20:44:48.088Z,99861.00
2019-02-19T20:47:16.372Z,99857.00
2019-02-19T20:49:44.563Z,99847.00
2019-02-19T20:52:12.742Z,99869.00
2019-02-19T20:54:40.922Z,99860.00
2019-02-19T20:57:09.222Z,99861.00
2019-02-19T20:59:37.464Z,99858.00
2019-02-19T21:02:05.648Z,99857.00
2019-02-19T21:04:33.873Z,99855.00
2019-02-19T21:07:02.055Z,99867.00
2019-02-19T21:09:30.291Z,99861.00
2019-02-19T21:11:58.453Z,99863.00
2019-02-19T21:14:26.677Z,99857.00
2019-02-19T21:16:54.887Z,99858.00
2019-02-19T21:19:23.161Z,99859.00
2019-02-19T21:21:51.345Z,99855.00
2019-02-19T21:24:19.629Z,99858.00
2019-02-19T21:26:47.807Z,99853.00
2019-02-19T21:29:15.978Z,99847.00
2019-02-19T21:31:44.286Z,99860.00
2019-02-19T21:34:12.425Z,99854.00
2019-02-19T21:36:40.701Z,99861.00
2019-02-19T21:39:08.974Z,99857.00
2019-02-19T21:41:37.176Z,99858.00
2019-02-19T21:44:05.369Z,99859.00
2019-02-19T21:46:34.024Z,99854.00
2019-02-19T21:49:02.318Z,99863.00
2019-02-19T21:51:30.434Z,99858.00
2019-02-19T21:53:58.687Z,99854.00
2019-02-19T21:56:26.883Z,99870.00
2019-02-19T21:58:55.039Z,99856.00
2019-02-19T22:01:23.221Z,99856.00
2019-02-19T22:03:51.390Z,99851.00
2019-02-19T22:06:19.600Z,99857.00
2019-02-19T22:08:47.785Z,99847.00
2019-02-19T22:11:16.014Z,99837.00
2019-02-19T22:13:44.202Z,99841.00
2019-02-19T22:16:12.458Z,99836.00
2019-02-19T22:18:40.603Z,99837.00
2019-02-19T22:21:23.511Z,99845.00
2019-02-19T22:23:51.729Z,99837.00
2019-02-19T22:26:19.884Z,99836.00
2019-02-19T22:28:48.075Z,99833.00
2019-02-19T22:31:16.320Z,99832.00
2019-02-19T22:33:44.527Z,99831.00
2019-02-19T22:36:12.751Z,99830.00
2019-02-19T22:38:40.977Z,99841.00
2019-02-19T22:41:09.328Z,99844.00
2019-02-19T22:43:37.522Z,99830.00
2019-02-19T22:46:05.867Z,99823.00
2019-02-19T22:48:34.127Z,99829.00
2019-02-19T22:51:02.302Z,99834.00
2019-02-19T22:53:56.020Z,99826.00
2019-02-19T22:56:27.312Z,99834.00
2019-02-19T22:58:55.580Z,99833.00
2019-02-19T23:01:32.588Z,99832.00
2019-02-19T23:04:02.153Z,99832.00
2019-02-19T23:06:30.412Z,99826.00
2019-02-19T23:08:58.809Z,99828.00
2019-02-19T23:11:26.991Z,99825.00
2019-02-19T23:13:55.220Z,99829.00
2019-02-19T23:16:23.543Z,99835.00
2019-02-19T23:18:51.714Z,99837.00
2019-02-19T23:21:19.926Z,99835.00
2019-02-19T23:23:48.159Z,99832.00
2019-02-19T23:26:16.377Z,99833.00
2019-02-19T23:28:44.600Z,99837.00
2019-02-19T23:31:12.816Z,99836.00
2019-02-19T23:33:41.038Z,99835.00
2019-02-19T23:36:37.600Z,99842.00
2019-02-19T23:39:06.735Z,99846.00
2019-02-19T23:41:34.989Z,99843.00
2019-02-19T23:44:03.266Z,99842.00
2019-02-19T23:46:31.601Z,99846.00
2019-02-19T23:48:59.817Z,99842.00
2019-02-19T23:51:28.032Z,99841.00
2019-02-19T23:53:56.276Z,99840.00
2019-02-19T23:56:24.553Z,99837.00
2019-02-19T23:58:52.769Z,99841.00
